Latest Weather Observations for Penrith

IDN60801

Issued at 3:02 am EST Tuesday 26 May 2015 (issued every 30 minutes, with the page automatically refreshed every 10 minutes)

About weather observations | Map of weather stations | Latest weather observations for NSW | Other Formats
Station Details ID: 067113 Name: PENRITH LAKES AWS Lat: -33.72 Lon: 150.68 Height: 24.7 m
Data from the previous 72 hours. | See also: Recent months at Penrith
Date/Time
EST
Temp
°C
App
Temp
°C
Dew
Point
Rel
Hum
%
Delta-T
°C
Wind Press
QNH
hPa
Press
MSL
hPa
Rain
since 9 am
mm
Dir
 
Spd
km/h
Gust
km/h
Spd
kts
Gust
kts
26/03:00am 6.3 5.4 5.9 97 0.2 CALM 0 0 0 0 - - 0.0
26/02:30am 6.6 5.0 6.2 97 0.2 S 4 4 2 2 - - 0.0
26/02:00am 6.3 4.6 5.9 97 0.2 SW 4 4 2 2 - - 0.0
26/01:30am 6.9 5.4 6.6 98 0.1 S 4 6 2 3 - - 0.0
26/01:00am 7.3 6.2 7.0 98 0.1 SSE 2 4 1 2 - - 0.0
26/12:30am 7.3 6.2 7.0 98 0.1 SSE 2 6 1 3 - - 0.0
26/12:00am 7.9 6.6 7.6 98 0.1 SSE 4 4 2 2 - - 0.0
 
Date/Time
EST
Temp
°C
App
Temp
°C
Dew
Point
Rel
Hum
%
Delta-T
°C
Wind Press
QNH
hPa
Press
MSL
hPa
Rain
since 9 am
mm
Dir
 
Spd
km/h
Gust
km/h
Spd
kts
Gust
kts
25/11:30pm 8.1 6.8 7.8 98 0.1 S 4 6 2 3 - - 0.0
25/11:00pm 8.7 7.2 8.4 98 0.1 WSW 6 7 3 4 - - 0.0
25/10:30pm 8.8 7.7 8.5 98 0.1 WNW 4 6 2 3 - - 0.0
25/10:00pm 9.5 9.3 9.2 98 0.1 CALM 0 0 0 0 - - 0.0
25/09:30pm 9.5 8.6 9.2 98 0.1 S 4 6 2 3 - - 0.0
25/09:00pm 10.4 9.7 10.1 98 0.2 S 4 6 2 3 - - 0.0
25/08:30pm 10.6 9.9 10.1 97 0.3 S 4 7 2 4 - - 0.0
25/08:00pm 10.8 10.2 10.3 97 0.3 SSW 4 6 2 3 - - 0.0
25/07:30pm 11.4 11.2 10.6 95 0.4 SSE 2 4 1 2 - - 0.0
25/07:00pm 11.5 11.6 10.1 91 0.7 CALM 0 2 0 1 - - 0.0
25/06:30pm 12.6 12.2 11.0 90 0.8 WNW 4 4 2 2 - - 0.0
25/06:00pm 12.7 11.7 10.4 86 1.2 WNW 6 6 3 3 - - 0.0
25/05:30pm 13.5 13.7 10.7 83 1.5 CALM 0 0 0 0 - - 0.0
25/05:00pm 14.1 14.2 10.3 78 2.0 CALM 0 0 0 0 - - 0.0
25/04:30pm 14.3 13.8 9.3 72 2.6 NW 2 2 1 1 - - 0.0
25/04:00pm 14.8 14.7 9.4 70 2.8 CALM 0 0 0 0 - - 0.0
25/03:30pm 15.4 15.2 8.9 65 3.3 CALM 0 0 0 0 - - 0.0
25/03:00pm 15.9 15.5 8.4 61 3.8 CALM 0 0 0 0 - - 0.0
25/02:30pm 15.9 15.5 8.2 60 3.9 CALM 0 0 0 0 - - 0.0
25/02:00pm 15.9 15.5 8.2 60 3.9 CALM 0 0 0 0 - - 0.0
25/01:30pm 15.6 15.2 8.4 62 3.6 CALM 0 2 0 1 - - 0.0
25/01:00pm 15.0 14.0 8.7 66 3.2 SW 4 6 2 3 - - 0.0
25/12:30pm 14.4 13.7 8.4 67 3.0 WSW 2 4 1 2 - - 0.0
25/12:00pm 14.1 13.1 8.7 70 2.7 W 4 6 2 3 - - 0.0
25/11:30am 14.4 13.3 8.4 67 3.0 WNW 4 7 2 4 - - 0.0
25/11:00am 13.1 12.4 8.6 74 2.3 WSW 2 4 1 2 - - 0.0
25/10:30am 12.3 12.0 8.6 78 1.8 CALM 0 0 0 0 - - 0.0
25/10:00am 11.6 11.3 8.6 82 1.5 CALM 0 4 0 2 - - 0.0
25/09:30am 11.4 11.3 9.3 87 1.1 CALM 0 2 0 1 - - 0.0
25/09:00am 10.2 9.5 9.9 98 0.2 N 4 6 2 3 - - 0.0
25/08:30am 9.1 8.1 8.8 98 0.1 NNE 4 4 2 2 - - 0.0
25/08:00am 8.0 7.5 7.7 98 0.1 CALM 0 2 0 1 - - 0.0
25/07:30am 7.2 6.5 6.9 98 0.1 CALM 0 0 0 0 - - 0.0
25/07:00am 6.9 5.7 6.6 98 0.1 SSW 2 4 1 2 - - 0.0
25/06:30am 6.8 6.0 6.5 98 0.1 CALM 0 0 0 0 - - 0.0
25/06:00am 6.8 6.0 6.5 98 0.1 CALM 0 0 0 0 - - 0.0
25/05:30am 6.8 6.0 6.5 98 0.1 CALM 0 2 0 1 - - 0.0
25/05:00am 7.1 5.6 6.8 98 0.1 N 4 6 2 3 - - 0.0
25/04:30am 7.2 5.7 6.9 98 0.1 N 4 6 2 3 - - 0.0
25/04:00am 6.9 5.7 6.5 97 0.2 S 2 6 1 3 - - 0.0
25/03:30am 7.3 5.5 7.0 98 0.1 S 6 7 3 4 - - 0.0
25/03:00am 7.2 5.7 6.9 98 0.1 SSW 4 6 2 3 - - 0.0
25/02:30am 7.3 5.8 6.9 97 0.2 SSW 4 6 2 3 - - 0.0
25/02:00am 6.8 5.6 6.4 97 0.2 SSW 2 2 1 1 - - 0.0
25/01:30am 7.3 6.5 6.6 95 0.3 CALM 0 0 0 0 - - 0.0
25/01:00am 7.9 6.5 7.1 95 0.4 NNE 4 4 2 2 - - 0.0
25/12:30am 8.5 7.5 7.4 93 0.5 SE 2 2 1 1 - - 0.0
25/12:00am 8.1 6.6 6.9 92 0.6 SSE 4 6 2 3 - - 0.0
 
Date/Time
EST
Temp
°C
App
Temp
°C
Dew
Point
Rel
Hum
%
Delta-T
°C
Wind Press
QNH
hPa
Press
MSL
hPa
Rain
since 9 am
mm
Dir
 
Spd
km/h
Gust
km/h
Spd
kts
Gust
kts
24/11:30pm 8.7 7.4 7.5 92 0.6 SSE 4 6 2 3 - - 0.0
24/11:00pm 8.6 7.6 7.5 93 0.5 S 2 2 1 1 - - 0.0
24/10:30pm 9.2 7.9 7.8 91 0.7 S 4 4 2 2 - - 0.0
24/10:00pm 9.6 8.2 7.4 86 1.0 WNW 4 4 2 2 - - 0.0
24/09:30pm 10.1 9.1 8.7 91 0.7 WNW 4 6 2 3 - - 0.0
24/09:00pm 9.6 8.3 7.7 88 0.9 W 4 6 2 3 - - 0.0
24/08:30pm 9.2 7.8 7.3 88 0.9 SSW 4 6 2 3 - - 0.0
24/08:00pm 9.7 8.0 7.5 86 1.0 SSW 6 7 3 4 - - 0.0
24/07:30pm 10.0 8.9 8.3 89 0.8 SW 4 4 2 2 - - 0.0
24/07:00pm 10.8 10.6 8.9 88 0.9 CALM 0 0 0 0 - - 0.0
24/06:30pm 11.6 11.3 8.6 82 1.5 CALM 0 0 0 0 - - 0.0
24/06:00pm 12.3 11.8 7.8 74 2.2 CALM 0 0 0 0 - - 0.0
24/05:30pm 13.2 12.1 7.0 66 3.0 NW 2 4 1 2 - - 0.0
24/05:00pm 14.8 13.8 7.4 61 3.7 NNW 2 4 1 2 - - 0.0
24/04:30pm 16.9 15.1 5.2 46 5.6 ENE 4 7 2 4 - - 0.0
24/04:00pm 18.1 15.8 5.7 44 6.1 NE 7 11 4 6 - - 0.0
24/03:30pm 18.9 16.5 4.3 38 7.0 ENE 6 9 3 5 - - 0.0
24/03:00pm 19.7 17.9 3.4 34 7.7 NNW 2 4 1 2 - - 0.0
24/02:30pm 18.7 16.1 3.3 36 7.2 E 6 11 3 6 - - 0.0
24/02:00pm 19.4 17.1 4.7 38 7.1 E 6 9 3 5 - - 0.0
24/01:30pm 19.0 16.9 4.0 37 7.1 NE 4 6 2 3 - - 0.0
24/01:00pm 18.1 15.6 3.9 39 6.7 SSE 6 9 3 5 - - 0.0
24/12:30pm 17.7 15.8 5.0 43 6.1 SE 4 7 2 4 - - 0.0
24/12:00pm 17.8 16.7 6.7 48 5.5 NE 2 4 1 2 - - 0.0
24/11:30am 15.8 14.5 7.6 58 4.1 SSE 4 6 2 3 - - 0.0
24/11:00am 15.2 14.8 8.4 64 3.4 CALM 0 0 0 0 - - 0.0
24/10:30am 13.6 12.9 8.4 71 2.6 NW 2 4 1 2 - - 0.0
24/10:00am 12.8 12.4 8.3 74 2.2 CALM 0 0 0 0 - - 0.0
24/09:30am 10.9 9.9 8.8 87 1.0 NW 4 4 2 2 - - 0.0
24/09:00am 10.1 10.1 9.8 98 0.2 CALM 0 0 0 0 - - 0.2
24/08:30am 8.5 8.1 8.2 98 0.1 CALM 0 0 0 0 - - 0.2
24/08:00am 6.9 6.1 6.6 98 0.1 CALM 0 0 0 0 - - 0.2
24/07:30am 6.3 4.6 6.0 98 0.1 NNE 4 4 2 2 - - 0.2
24/07:00am 6.5 5.2 6.2 98 0.1 WNW 2 4 1 2 - - 0.2
24/06:30am 6.7 5.1 6.4 98 0.1 WNW 4 6 2 3 - - 0.0
24/06:00am 6.6 5.8 6.3 98 0.1 CALM 0 0 0 0 - - 0.0
24/05:30am 6.5 5.6 6.2 98 0.1 CALM 0 0 0 0 - - 0.0
24/05:00am 6.3 5.4 6.0 98 0.1 CALM 0 2 0 1 - - 0.0
24/04:30am 6.8 6.0 6.5 98 0.1 CALM 0 2 0 1 - - 0.0
24/04:00am 6.8 6.0 6.4 97 0.2 CALM 0 0 0 0 - - 0.0
24/03:30am 6.7 5.1 6.3 97 0.2 W 4 4 2 2 - - 0.0
24/03:00am 7.3 6.6 6.9 97 0.2 CALM 0 0 0 0 - - 0.0
24/02:30am 7.2 6.1 6.8 97 0.2 W 2 4 1 2 - - 0.0
24/02:00am 7.1 5.9 6.4 95 0.3 W 2 2 1 1 - - 0.0
24/01:30am 7.3 6.1 6.6 95 0.3 W 2 2 1 1 - - 0.0
24/01:00am 7.8 6.3 6.9 94 0.4 W 4 4 2 2 - - 0.0
24/12:30am 8.7 6.7 7.2 90 0.7 WNW 7 9 4 5 - - 0.0
24/12:00am 8.4 6.7 7.6 95 0.4 W 6 11 3 6 - - 0.0
 
Date/Time
EST
Temp
°C
App
Temp
°C
Dew
Point
Rel
Hum
%
Delta-T
°C
Wind Press
QNH
hPa
Press
MSL
hPa
Rain
since 9 am
mm
Dir
 
Spd
km/h
Gust
km/h
Spd
kts
Gust
kts
23/11:30pm 8.1 7.1 7.3 95 0.4 SSE 2 4 1 2 - - 0.0
23/11:00pm 8.3 6.9 7.2 93 0.5 SSW 4 6 2 3 - - 0.0
23/10:30pm 8.8 7.9 7.9 94 0.4 SSE 2 4 1 2 - - 0.0
23/10:00pm 8.9 8.0 7.7 92 0.6 WSW 2 4 1 2 - - 0.0
23/09:30pm 8.9 7.9 7.5 91 0.7 WSW 2 2 1 1 - - 0.0
23/09:00pm 9.5 9.0 7.9 90 0.8 CALM 0 0 0 0 - - 0.0
23/08:30pm 9.9 9.5 8.2 89 0.8 CALM 0 0 0 0 - - 0.0
23/08:00pm 10.4 9.9 8.0 85 1.2 CALM 0 0 0 0 - - 0.0
23/07:30pm 10.8 10.3 7.7 81 1.5 CALM 0 2 0 1 - - 0.0
23/07:00pm 11.2 9.5 7.5 78 1.8 SW 6 6 3 3 - - 0.0
23/06:30pm 11.6 10.2 7.3 75 2.1 WSW 4 4 2 2 - - 0.0
23/06:00pm 11.8 10.3 6.9 72 2.3 WSW 4 6 2 3 - - 0.0
23/05:30pm 13.2 12.2 7.2 67 2.9 WSW 2 4 1 2 - - 0.0
23/05:00pm 14.7 12.9 5.5 54 4.4 SSE 4 7 2 4 - - 0.0
23/04:30pm 16.9 15.4 7.0 52 4.9 SW 4 4 2 2 - - 0.0
23/04:00pm 18.1 16.0 5.7 44 6.1 SW 6 7 3 4 - - 0.0
23/03:30pm 18.3 15.8 4.8 41 6.5 SW 7 9 4 5 - - 0.0
23/03:00pm 17.8 15.3 4.7 42 6.3 WSW 7 11 4 6 - - 0.0
23/02:30pm 18.5 15.8 5.4 42 6.4 SSW 9 13 5 7 - - 0.0
23/02:00pm 18.4 14.8 4.9 41 6.5 SSW 13 19 7 10 - - 0.0
23/01:30pm 18.4 15.3 5.6 43 6.2 SW 11 15 6 8 - - 0.0
23/01:00pm 18.2 15.2 6.1 45 6.0 SSW 11 20 6 11 - - 0.0
23/12:30pm 17.9 14.9 5.8 45 5.9 SSW 11 20 6 11 - - 0.0
23/12:00pm 18.1 14.7 5.7 44 6.1 S 13 19 7 10 - - 0.0
23/11:30am 17.4 13.9 5.4 45 5.8 SSW 13 24 7 13 - - 0.0
23/11:00am 17.0 12.3 5.0 45 5.7 SW 19 28 10 15 - - 0.0
23/10:30am 16.5 12.0 4.2 44 5.8 SW 17 26 9 14 - - 0.0
23/10:00am 16.2 12.3 5.2 48 5.2 SW 15 22 8 12 - - 0.0
23/09:30am 15.3 11.3 5.0 50 4.9 SW 15 24 8 13 - - 0.0
23/09:00am 14.5 11.3 5.3 54 4.3 SSW 11 17 6 9 - - 12.8
23/08:30am 13.4 8.9 4.3 54 4.2 SSW 17 24 9 13 - - 12.8
23/08:00am 12.5 8.8 4.7 59 3.6 SSW 13 19 7 10 - - 12.8
23/07:30am 11.8 8.0 4.1 59 3.5 SSW 13 19 7 10 - - 12.8
23/07:00am 11.8 7.7 4.1 59 3.5 SSW 15 24 8 13 - - 12.8
23/06:30am 11.8 7.3 4.3 60 3.4 SSW 17 28 9 15 - - 12.8
23/06:00am 10.9 8.0 4.8 66 2.8 S 9 15 5 8 - - 12.8
23/05:30am 11.4 9.0 5.1 65 2.9 SSW 7 13 4 7 - - 12.8
23/05:00am 11.6 8.8 5.3 65 2.9 SSW 9 19 5 10 - - 12.8
23/04:30am 11.7 9.0 5.8 67 2.7 SW 9 15 5 8 - - 12.8
23/04:00am 12.3 10.0 5.9 65 3.0 SSW 7 11 4 6 - - 12.8
23/03:30am 13.2 10.3 6.3 63 3.3 SSW 11 15 6 8 - - 12.8

Other Formats:

Comma delimited format used in spreadsheet applications
http://www.bom.gov.au/fwo/IDN60801/IDN60801.94763.axf

JavaScript Object Notation format (JSON) in row-major order
http://www.bom.gov.au/fwo/IDN60801/IDN60801.94763.json